Time;durP1;ratioP1;P1;durP2;ratioP2;P2;SDS_P1;SDS_P2;PMS_P1;PMS_P2;Temp;Humidity;BMP_temperature;BMP_pressure;BME280_temperature;BME280_humidity;BME280_pressure;Samples;Min_cycle;Max_cycle;Signal;HPM_P1;HPM_P2
2023/02/22 00:01:34;;;;;;;;;;;;;;;8.21;100.00;101494.59;5014289;28;19925;-68
2023/02/22 00:04:01;;;;;;;;;;;;;;;8.17;100.00;101502.75;5033352;28;19974;-67
2023/02/22 00:06:29;;;;;;;;;;;;;;;8.09;100.00;101498.09;5027673;28;19925;-65
2023/02/22 00:08:57;;;;;;;;;;;;;;;8.06;100.00;101511.41;5043094;28;19928;-66
2023/02/22 00:11:23;;;;;;;;;;;;;;;8.09;100.00;101506.75;5028616;28;20617;-68
2023/02/22 00:13:50;;;;;;;;;;;;;;;8.11;100.00;101511.88;5014538;28;19932;-66
2023/02/22 00:16:18;;;;;;;;;;;;;;;8.11;100.00;101504.91;5033428;28;20019;-67
2023/02/22 00:18:44;;;;;;;;;;;;;;;8.06;100.00;101506.19;5038619;28;19924;-67
2023/02/22 00:21:12;;;;;;;;;;;;;;;8.04;100.00;101497.63;5032855;28;20281;-68
2023/02/22 00:23:39;;;;;;;;;;;;;;;8.08;100.00;101497.28;5019371;28;19924;-67
2023/02/22 00:26:08;;;;;;;;;;;;;;;8.09;100.00;101491.09;5030466;28;20560;-67
2023/02/22 00:28:36;;;;;;;;;;;;;;;8.02;100.00;101494.28;5036550;28;19925;-68
2023/02/22 00:31:05;;;;;;;;;;;;;;;7.93;100.00;101507.06;5025715;28;19974;-67
2023/02/22 00:33:32;;;;;;;;;;;;;;;7.97;100.00;101502.44;5039300;28;20775;-67
2023/02/22 00:35:58;;;;;;;;;;;;;;;7.90;100.00;101498.66;5025677;28;19967;-68
2023/02/22 00:38:24;;;;;;;;;;;;;;;8.00;100.00;101497.03;5032813;28;19973;-67
2023/02/22 00:40:51;;;;;;;;;;;;;;;8.05;100.00;101501.91;5031791;28;19924;-67
2023/02/22 00:43:17;;;;;;;;;;;;;;;8.01;100.00;101497.84;5040306;28;19924;-68
2023/02/22 00:45:43;;;;;;;;;;;;;;;7.94;100.00;101497.47;5042853;28;19928;-68
2023/02/22 00:48:10;;;;;;;;;;;;;;;8.01;100.00;101490.00;5028537;28;20385;-67
2023/02/22 00:50:36;;;;;;;;;;;;;;;8.05;100.00;101494.88;5041916;28;20431;-67
2023/02/22 00:53:03;;;;;;;;;;;;;;;8.01;100.00;101487.38;5026141;28;19932;-67
2023/02/22 00:55:31;;;;;;;;;;;;;;;8.06;100.00;101483.50;5036807;28;20015;-66
2023/02/22 00:57:58;;;;;;;;;;;;;;;8.09;100.00;101487.66;5035147;28;20277;-67
2023/02/22 01:00:26;;;;;;;;;;;;;;;8.09;100.00;101488.47;5031988;28;19948;-67
2023/02/22 01:02:52;;;;;;;;;;;;;;;8.08;100.00;101486.00;5030348;28;19931;-67
2023/02/22 01:05:20;;;;;;;;;;;;;;;8.07;100.00;101487.75;5034033;28;20373;-68
2023/02/22 01:07:47;;;;;;;;;;;;;;;7.93;100.00;101488.78;5040510;28;19928;-67
2023/02/22 01:10:15;;;;;;;;;;;;;;;7.97;100.00;101478.94;5035697;28;19924;-68
2023/02/22 01:12:41;;;;;;;;;;;;;;;7.98;100.00;101478.00;5027097;28;19947;-67
2023/02/22 01:15:10;;;;;;;;;;;;;;;7.93;100.00;101475.72;5023142;28;19929;-68
2023/02/22 01:17:37;;;;;;;;;;;;;;;7.92;100.00;101474.06;5027442;28;20141;-67
2023/02/22 01:20:09;;;;;;;;;;;;;;;8.01;100.00;101467.31;5038294;28;19932;-66
2023/02/22 01:22:36;;;;;;;;;;;;;;;8.05;100.00;101465.31;5025138;28;20400;-67
2023/02/22 01:25:06;;;;;;;;;;;;;;;8.09;100.00;101461.53;5036924;28;19931;-67
2023/02/22 01:27:33;;;;;;;;;;;;;;;8.01;100.00;101453.44;5042797;28;19925;-67
2023/02/22 01:30:00;;;;;;;;;;;;;;;7.97;100.00;101459.81;5041962;28;19924;-66
2023/02/22 01:32:27;;;;;;;;;;;;;;;7.99;100.00;101456.16;5036064;28;19935;-66
2023/02/22 01:34:53;;;;;;;;;;;;;;;7.90;100.00;101457.69;5031440;28;20001;-67
2023/02/22 01:37:19;;;;;;;;;;;;;;;7.76;100.00;101457.84;5051038;28;19920;-67
2023/02/22 01:39:46;;;;;;;;;;;;;;;7.80;100.00;101456.69;5034870;28;19925;-68
2023/02/22 01:42:12;;;;;;;;;;;;;;;7.84;100.00;101452.06;5044187;28;19928;-65
2023/02/22 01:44:40;;;;;;;;;;;;;;;7.76;100.00;101455.22;5025297;28;20297;-67
2023/02/22 01:47:08;;;;;;;;;;;;;;;7.72;100.00;101448.56;5030207;28;19935;-67
2023/02/22 01:49:34;;;;;;;;;;;;;;;7.79;100.00;101452.41;5036261;28;19921;-67
2023/02/22 01:52:02;;;;;;;;;;;;;;;7.60;100.00;101442.47;5038158;28;19929;-66
2023/02/22 01:54:38;;;;;;;;;;;;;;;7.58;100.00;101440.91;5038884;28;19925;-68
2023/02/22 01:57:05;;;;;;;;;;;;;;;7.50;100.00;101434.47;5025475;28;19921;-67
2023/02/22 01:59:33;;;;;;;;;;;;;;;7.53;100.00;101429.03;5036432;28;19939;-67
2023/02/22 02:01:59;;;;;;;;;;;;;;;7.58;100.00;101426.06;5037135;28;19925;-65
2023/02/22 02:04:26;;;;;;;;;;;;;;;7.67;100.00;101432.41;5038320;28;19931;-65
2023/02/22 02:06:55;;;;;;;;;;;;;;;7.75;100.00;101424.84;5027336;28;19928;-65
2023/02/22 02:09:30;;;;;;;;;;;;;;;7.79;100.00;101425.47;5045146;28;19931;-66
2023/02/22 02:11:59;;;;;;;;;;;;;;;7.76;100.00;101425.66;5032915;28;19935;-65
2023/02/22 02:14:26;;;;;;;;;;;;;;;7.77;100.00;101427.34;5036943;28;19924;-66
2023/02/22 02:16:54;;;;;;;;;;;;;;;7.79;100.00;101426.28;5037984;28;19934;-66
2023/02/22 02:19:39;;;;;;;;;;;;;;;7.77;100.00;101420.34;5048008;28;19946;-66
2023/02/22 02:22:24;;;;;;;;;;;;;;;7.60;100.00;101418.13;5032168;28;19983;-63
2023/02/22 02:25:04;;;;;;;;;;;;;;;7.45;100.00;101420.94;5027964;28;20003;-65
2023/02/22 02:27:39;;;;;;;;;;;;;;;7.59;100.00;101408.66;5030585;28;19925;-65
2023/02/22 02:30:31;;;;;;;;;;;;;;;7.63;100.00;101420.53;5025101;28;20381;-65
2023/02/22 02:33:00;;;;;;;;;;;;;;;7.69;100.00;101404.41;5035410;28;20353;-67
2023/02/22 02:35:47;;;;;;;;;;;;;;;7.69;100.00;101401.81;5028501;28;20487;-66
2023/02/22 02:38:28;;;;;;;;;;;;;;;7.71;100.00;101400.72;5035263;28;19988;-66
2023/02/22 02:40:58;;;;;;;;;;;;;;;7.69;100.00;101393.97;5046621;28;20003;-65
2023/02/22 02:43:35;;;;;;;;;;;;;;;7.74;100.00;101391.81;5032063;28;19932;-65
2023/02/22 02:46:04;;;;;;;;;;;;;;;7.58;100.00;101389.53;5033629;28;19931;-66
2023/02/22 02:48:32;;;;;;;;;;;;;;;7.50;100.00;101386.66;5036994;28;19924;-63
2023/02/22 02:51:00;;;;;;;;;;;;;;;7.55;100.00;101388.91;5037184;28;19970;-65
2023/02/22 02:53:31;;;;;;;;;;;;;;;7.54;100.00;101380.25;5039884;28;19932;-66
2023/02/22 02:55:58;;;;;;;;;;;;;;;7.51;100.00;101376.09;5037285;28;19951;-65
2023/02/22 02:58:25;;;;;;;;;;;;;;;7.49;100.00;101380.59;5040145;28;19951;-65
2023/02/22 03:00:54;;;;;;;;;;;;;;;7.48;100.00;101375.50;5037008;28;19932;-66
2023/02/22 03:03:20;;;;;;;;;;;;;;;7.49;100.00;101379.78;5027834;28;20412;-66
2023/02/22 03:05:46;;;;;;;;;;;;;;;7.44;100.00;101374.06;5022071;28;19951;-65
2023/02/22 03:08:16;;;;;;;;;;;;;;;7.30;100.00;101370.66;5041507;28;19925;-66
2023/02/22 03:10:49;;;;;;;;;;;;;;;7.35;100.00;101364.28;5041479;28;20671;-66
2023/02/22 03:13:27;;;;;;;;;;;;;;;7.26;100.00;101373.63;5036225;28;20343;-65
2023/02/22 03:16:04;;;;;;;;;;;;;;;7.19;100.00;101365.38;5028921;28;19931;-65
2023/02/22 03:18:30;;;;;;;;;;;;;;;7.03;100.00;101368.25;5035140;28;19983;-65
2023/02/22 03:21:05;;;;;;;;;;;;;;;6.97;100.00;101362.66;5021924;28;20413;-66
2023/02/22 03:23:36;;;;;;;;;;;;;;;7.02;100.00;101366.63;5027381;28;19947;-66
2023/02/22 03:26:06;;;;;;;;;;;;;;;6.97;100.00;101363.50;5031976;28;19975;-66
2023/02/22 03:28:35;;;;;;;;;;;;;;;7.12;100.00;101359.78;5022665;28;20428;-66
2023/02/22 03:31:04;;;;;;;;;;;;;;;7.09;100.00;101357.38;5029686;28;20284;-64
2023/02/22 03:33:43;;;;;;;;;;;;;;;7.06;100.00;101359.41;5014557;28;20134;-65
2023/02/22 03:36:15;;;;;;;;;;;;;;;6.98;100.00;101359.97;5027227;28;19921;-66
2023/02/22 03:38:43;;;;;;;;;;;;;;;6.90;100.00;101355.28;5023000;28;19925;-66
2023/02/22 03:41:10;;;;;;;;;;;;;;;7.01;100.00;101357.09;5031433;28;20011;-65
2023/02/22 03:43:38;;;;;;;;;;;;;;;7.04;100.00;101361.28;5022515;28;19920;-66
2023/02/22 03:46:07;;;;;;;;;;;;;;;7.07;100.00;101356.66;5023443;28;20351;-65
2023/02/22 03:48:54;;;;;;;;;;;;;;;7.11;100.00;101355.53;5027186;28;19925;-65
2023/02/22 03:51:21;;;;;;;;;;;;;;;7.10;100.00;101353.84;4985087;28;19941;-65
2023/02/22 03:53:48;;;;;;;;;;;;;;;7.09;100.00;101353.94;5027719;28;19929;-65
2023/02/22 03:56:19;;;;;;;;;;;;;;;7.11;100.00;101352.91;5029502;28;20428;-65
2023/02/22 03:58:49;;;;;;;;;;;;;;;7.02;100.00;101347.53;5029114;28;19936;-66
2023/02/22 04:01:16;;;;;;;;;;;;;;;6.96;100.00;101340.13;5021543;28;19928;-67
2023/02/22 04:03:43;;;;;;;;;;;;;;;6.86;100.00;101342.56;5035833;28;19975;-67
2023/02/22 04:06:09;;;;;;;;;;;;;;;6.83;100.00;101340.19;5046650;28;19921;-67
2023/02/22 04:08:36;;;;;;;;;;;;;;;6.70;100.00;101341.06;5025957;28;19927;-67
2023/02/22 04:11:02;;;;;;;;;;;;;;;6.68;100.00;101340.34;5041891;28;19947;-67
2023/02/22 04:13:29;;;;;;;;;;;;;;;6.66;100.00;101334.38;5016526;28;20277;-67
2023/02/22 04:15:55;;;;;;;;;;;;;;;6.63;100.00;101333.78;5022737;28;20609;-67
2023/02/22 04:18:21;;;;;;;;;;;;;;;6.65;100.00;101327.50;5023896;28;20332;-67
2023/02/22 04:20:48;;;;;;;;;;;;;;;6.69;100.00;101325.53;5026256;28;20212;-67
2023/02/22 04:23:15;;;;;;;;;;;;;;;6.79;100.00;101334.34;5026812;28;19921;-68
2023/02/22 04:25:42;;;;;;;;;;;;;;;6.77;100.00;101328.41;5021037;28;19925;-67
2023/02/22 04:28:08;;;;;;;;;;;;;;;6.91;100.00;101330.84;5024407;28;19928;-67
2023/02/22 04:30:35;;;;;;;;;;;;;;;6.90;100.00;101326.59;5022274;28;19925;-68
2023/02/22 04:33:01;;;;;;;;;;;;;;;6.98;100.00;101322.59;5044919;28;19958;-67
2023/02/22 04:35:27;;;;;;;;;;;;;;;7.01;100.00;101331.03;5029434;28;19928;-67
2023/02/22 04:37:54;;;;;;;;;;;;;;;7.05;100.00;101323.81;5039723;28;20373;-67
2023/02/22 04:40:20;;;;;;;;;;;;;;;7.09;100.00;101320.03;5026872;28;19928;-68
2023/02/22 04:42:46;;;;;;;;;;;;;;;7.11;100.00;101316.41;5031541;28;19925;-67
2023/02/22 04:45:13;;;;;;;;;;;;;;;7.12;100.00;101310.22;5043679;28;19925;-67
2023/02/22 04:47:39;;;;;;;;;;;;;;;7.09;100.00;101313.03;5031112;28;19920;-67
2023/02/22 04:50:08;;;;;;;;;;;;;;;7.16;100.00;101312.63;5044061;28;19921;-67
2023/02/22 04:52:34;;;;;;;;;;;;;;;7.15;100.00;101305.72;5024299;28;20336;-67
2023/02/22 04:55:01;;;;;;;;;;;;;;;7.11;100.00;101298.13;5033473;28;19921;-67
2023/02/22 04:57:27;;;;;;;;;;;;;;;7.15;100.00;101292.69;5021979;28;19921;-67
2023/02/22 04:59:54;;;;;;;;;;;;;;;7.09;100.00;101292.16;5021712;28;19924;-67
2023/02/22 05:02:20;;;;;;;;;;;;;;;7.08;100.00;101290.53;5042908;28;19983;-67
2023/02/22 05:04:46;;;;;;;;;;;;;;;7.03;100.00;101289.19;5036670;28;19970;-67
2023/02/22 05:07:13;;;;;;;;;;;;;;;6.99;100.00;101285.13;5033731;28;19956;-67
2023/02/22 05:09:39;;;;;;;;;;;;;;;6.96;100.00;101283.59;5023771;28;20286;-67
2023/02/22 05:12:06;;;;;;;;;;;;;;;7.00;100.00;101281.56;5031774;28;19921;-67
2023/02/22 05:14:32;;;;;;;;;;;;;;;6.95;100.00;101278.50;5031437;28;19924;-68
2023/02/22 05:16:59;;;;;;;;;;;;;;;6.89;100.00;101271.94;5036372;28;20016;-67
2023/02/22 05:19:26;;;;;;;;;;;;;;;6.87;100.00;101273.81;5034601;28;19921;-67
2023/02/22 05:21:52;;;;;;;;;;;;;;;6.91;100.00;101268.25;5033602;28;19925;-67
2023/02/22 05:24:18;;;;;;;;;;;;;;;6.98;100.00;101270.41;5027219;28;19952;-68
2023/02/22 05:26:45;;;;;;;;;;;;;;;7.00;100.00;101272.00;5032327;28;19988;-67
2023/02/22 05:29:12;;;;;;;;;;;;;;;7.04;100.00;101270.81;5035121;28;20123;-67
2023/02/22 05:31:40;;;;;;;;;;;;;;;7.07;100.00;101269.75;5043289;28;19994;-67
2023/02/22 05:34:06;;;;;;;;;;;;;;;7.06;100.00;101260.28;5026287;28;19929;-67
2023/02/22 05:36:33;;;;;;;;;;;;;;;7.01;100.00;101260.59;5031694;28;20548;-68
2023/02/22 05:38:59;;;;;;;;;;;;;;;6.98;100.00;101260.84;5024823;28;19924;-67
2023/02/22 05:41:26;;;;;;;;;;;;;;;6.93;100.00;101253.34;5056232;28;20407;-67
2023/02/22 05:43:53;;;;;;;;;;;;;;;6.69;100.00;101255.94;5032957;28;19950;-68
2023/02/22 05:46:19;;;;;;;;;;;;;;;6.84;100.00;101251.41;5039192;28;20377;-67
2023/02/22 05:48:45;;;;;;;;;;;;;;;6.91;100.00;101249.19;5029252;28;19947;-67
2023/02/22 05:51:12;;;;;;;;;;;;;;;6.81;100.00;101256.84;5026589;28;19979;-67
2023/02/22 05:53:38;;;;;;;;;;;;;;;6.81;100.00;101250.81;5036058;28;20307;-67
2023/02/22 05:56:05;;;;;;;;;;;;;;;6.83;100.00;101248.91;5041920;28;19932;-68
2023/02/22 05:58:31;;;;;;;;;;;;;;;6.90;100.00;101245.75;5039344;28;19924;-68
2023/02/22 06:00:58;;;;;;;;;;;;;;;6.92;100.00;101235.22;5035396;28;19936;-67
2023/02/22 06:03:25;;;;;;;;;;;;;;;6.88;100.00;101232.00;5037798;28;20679;-67
2023/02/22 06:05:52;;;;;;;;;;;;;;;6.93;100.00;101232.47;5034057;28;19952;-67
2023/02/22 06:08:18;;;;;;;;;;;;;;;6.89;100.00;101244.06;5040565;28;19932;-68
2023/02/22 06:10:44;;;;;;;;;;;;;;;6.93;100.00;101242.06;5043271;28;20292;-67
2023/02/22 06:13:11;;;;;;;;;;;;;;;6.88;100.00;101242.44;5033763;28;20261;-67
2023/02/22 06:15:37;;;;;;;;;;;;;;;6.86;100.00;101244.31;5034330;28;19925;-68
2023/02/22 06:18:04;;;;;;;;;;;;;;;6.87;100.00;101243.34;5021472;28;19924;-67
2023/02/22 06:20:32;;;;;;;;;;;;;;;6.91;100.00;101241.34;5037247;28;20305;-67
2023/02/22 06:22:58;;;;;;;;;;;;;;;6.88;100.00;101241.56;5031794;28;19928;-67
2023/02/22 06:25:26;;;;;;;;;;;;;;;6.85;100.00;101236.59;5021586;28;19928;-67
2023/02/22 06:27:52;;;;;;;;;;;;;;;6.78;100.00;101238.81;5039271;28;19927;-67
2023/02/22 06:30:19;;;;;;;;;;;;;;;6.77;100.00;101244.16;5027290;28;20432;-67
2023/02/22 06:32:46;;;;;;;;;;;;;;;6.76;100.00;101248.50;5026119;28;19998;-67
2023/02/22 06:35:13;;;;;;;;;;;;;;;6.76;100.00;101247.69;5026873;28;19952;-67
2023/02/22 06:37:39;;;;;;;;;;;;;;;6.66;100.00;101244.91;5040485;28;19936;-67
2023/02/22 06:40:06;;;;;;;;;;;;;;;6.69;100.00;101244.69;5041169;28;20031;-68
2023/02/22 06:42:32;;;;;;;;;;;;;;;6.53;100.00;101245.81;5022893;28;20400;-67
2023/02/22 06:44:59;;;;;;;;;;;;;;;6.57;100.00;101240.38;5029351;28;19933;-67
2023/02/22 06:47:25;;;;;;;;;;;;;;;6.63;100.00;101238.16;5018630;28;19925;-67
2023/02/22 06:49:52;;;;;;;;;;;;;;;6.61;100.00;101237.44;5029610;28;19921;-67
2023/02/22 06:52:19;;;;;;;;;;;;;;;6.56;100.00;101230.88;5025280;28;20605;-67
2023/02/22 06:54:45;;;;;;;;;;;;;;;6.54;100.00;101221.38;5042361;28;19998;-67
2023/02/22 06:57:12;;;;;;;;;;;;;;;6.58;100.00;101224.59;5037055;28;19931;-67
2023/02/22 06:59:38;;;;;;;;;;;;;;;6.59;100.00;101223.69;5027117;28;20179;-67
2023/02/22 07:02:04;;;;;;;;;;;;;;;6.62;100.00;101220.84;5031260;28;19929;-67
2023/02/22 07:04:30;;;;;;;;;;;;;;;6.67;100.00;101223.94;5021718;28;19920;-67
2023/02/22 07:06:57;;;;;;;;;;;;;;;6.74;100.00;101226.94;5042081;28;19936;-67
2023/02/22 07:09:23;;;;;;;;;;;;;;;6.76;100.00;101222.44;5035375;28;19982;-67
2023/02/22 07:11:49;;;;;;;;;;;;;;;6.68;100.00;101223.03;5038198;28;19920;-67
2023/02/22 07:14:16;;;;;;;;;;;;;;;6.77;100.00;101225.91;5026404;28;20449;-67
2023/02/22 07:16:43;;;;;;;;;;;;;;;6.80;100.00;101218.69;5022340;28;19925;-67
2023/02/22 07:19:09;;;;;;;;;;;;;;;6.89;100.00;101225.00;5036255;28;19921;-67
2023/02/22 07:21:35;;;;;;;;;;;;;;;6.88;100.00;101224.16;5027506;28;19921;-67
2023/02/22 07:24:02;;;;;;;;;;;;;;;6.96;100.00;101220.16;5028650;28;19967;-67
2023/02/22 07:26:36;;;;;;;;;;;;;;;6.83;100.00;101228.88;5033951;28;20019;-67
2023/02/22 07:29:03;;;;;;;;;;;;;;;7.00;100.00;101226.81;5028746;28;19924;-68
2023/02/22 07:31:33;;;;;;;;;;;;;;;6.98;100.00;101223.47;5041013;28;19921;-69
2023/02/22 07:33:59;;;;;;;;;;;;;;;6.93;100.00;101219.44;5038340;28;20292;-67
2023/02/22 07:36:26;;;;;;;;;;;;;;;6.97;100.00;101217.44;5034961;28;19925;-68
2023/02/22 07:38:52;;;;;;;;;;;;;;;6.98;100.00;101219.09;5026360;28;19948;-67
2023/02/22 07:41:18;;;;;;;;;;;;;;;6.99;100.00;101227.75;5022776;28;19948;-67
2023/02/22 07:43:45;;;;;;;;;;;;;;;7.02;100.00;101227.53;5019788;28;20676;-67
2023/02/22 07:46:11;;;;;;;;;;;;;;;7.05;100.00;101235.13;5026205;28;19951;-68
2023/02/22 07:48:38;;;;;;;;;;;;;;;7.10;100.00;101235.63;5040281;28;20304;-68
2023/02/22 07:51:04;;;;;;;;;;;;;;;7.08;100.00;101225.31;5024819;28;19970;-68
2023/02/22 07:53:32;;;;;;;;;;;;;;;7.13;100.00;101217.13;5043732;28;19921;-68
2023/02/22 07:56:00;;;;;;;;;;;;;;;7.08;100.00;101219.25;5022298;28;19921;-67
2023/02/22 07:58:28;;;;;;;;;;;;;;;7.11;100.00;101219.03;5038838;28;20404;-67
2023/02/22 08:00:54;;;;;;;;;;;;;;;7.11;100.00;101217.25;5024429;28;19925;-67
2023/02/22 08:03:22;;;;;;;;;;;;;;;7.19;100.00;101221.06;5037713;28;19925;-67
2023/02/22 08:05:50;;;;;;;;;;;;;;;7.27;100.00;101222.16;5025023;28;19928;-67
2023/02/22 08:08:16;;;;;;;;;;;;;;;7.32;100.00;101222.63;5020343;28;19931;-67
2023/02/22 08:10:45;;;;;;;;;;;;;;;7.30;100.00;101215.88;5020061;28;19921;-68
2023/02/22 08:13:12;;;;;;;;;;;;;;;7.35;100.00;101218.13;5023175;28;19924;-68
2023/02/22 08:15:39;;;;;;;;;;;;;;;7.39;100.00;101217.81;5022543;28;19995;-68
2023/02/22 08:18:07;;;;;;;;;;;;;;;7.42;100.00;101217.56;5032449;28;20023;-68
2023/02/22 08:20:35;;;;;;;;;;;;;;;7.44;100.00;101218.25;5033266;28;20124;-68
2023/02/22 08:23:01;;;;;;;;;;;;;;;7.48;100.00;101230.13;5021292;28;19929;-68
2023/02/22 08:25:28;;;;;;;;;;;;;;;7.49;100.00;101223.97;5015830;28;19921;-68
2023/02/22 08:28:00;;;;;;;;;;;;;;;7.53;100.00;101219.34;5040801;28;19978;-68
2023/02/22 08:30:27;;;;;;;;;;;;;;;7.53;100.00;101201.91;5032745;28;19968;-68
2023/02/22 08:32:54;;;;;;;;;;;;;;;7.58;100.00;101203.34;5028927;28;19928;-68
2023/02/22 08:35:21;;;;;;;;;;;;;;;7.63;100.00;101202.03;5020549;28;20040;-68
2023/02/22 08:37:49;;;;;;;;;;;;;;;7.63;100.00;101207.25;5022386;28;19925;-68
2023/02/22 08:40:17;;;;;;;;;;;;;;;7.59;100.00;101212.84;5021551;28;20661;-68
2023/02/22 08:42:43;;;;;;;;;;;;;;;7.58;100.00;101213.78;5019872;28;20440;-69
2023/02/22 08:45:10;;;;;;;;;;;;;;;7.62;100.00;101215.19;5025861;28;19925;-68
2023/02/22 08:47:37;;;;;;;;;;;;;;;7.67;100.00;101223.53;5030624;28;20004;-68
2023/02/22 08:50:03;;;;;;;;;;;;;;;7.69;100.00;101230.28;5030088;28;19932;-68
2023/02/22 08:52:29;;;;;;;;;;;;;;;7.57;100.00;101243.47;5020932;28;19925;-68
2023/02/22 08:54:56;;;;;;;;;;;;;;;7.51;100.00;101236.91;5010469;28;19960;-68
2023/02/22 08:57:22;;;;;;;;;;;;;;;7.58;100.00;101225.03;5036012;28;20373;-68
2023/02/22 08:59:49;;;;;;;;;;;;;;;7.55;100.00;101232.28;5024668;28;19982;-68
2023/02/22 09:02:16;;;;;;;;;;;;;;;7.47;100.00;101227.66;5028654;28;19921;-68
2023/02/22 09:04:43;;;;;;;;;;;;;;;7.49;100.00;101231.81;5006272;28;19951;-68
2023/02/22 09:07:09;;;;;;;;;;;;;;;7.59;100.00;101216.28;5031862;28;19965;-68
2023/02/22 09:09:36;;;;;;;;;;;;;;;7.71;100.00;101217.13;5030077;28;20438;-68
2023/02/22 09:12:02;;;;;;;;;;;;;;;7.80;100.00;101216.41;5030113;28;19932;-68
2023/02/22 09:14:29;;;;;;;;;;;;;;;7.86;100.00;101212.47;5035081;28;19972;-68
2023/02/22 09:16:55;;;;;;;;;;;;;;;7.95;100.00;101203.94;5024258;28;20293;-67
2023/02/22 09:19:21;;;;;;;;;;;;;;;7.98;100.00;101202.84;5025981;28;19925;-68
2023/02/22 09:21:51;;;;;;;;;;;;;;;8.08;100.00;101195.97;5018151;28;19932;-67
2023/02/22 09:24:17;;;;;;;;;;;;;;;8.15;100.00;101184.06;5041804;28;20372;-68
2023/02/22 09:26:46;;;;;;;;;;;;;;;8.25;100.00;101178.94;5039681;28;19928;-68
2023/02/22 09:29:12;;;;;;;;;;;;;;;8.32;100.00;101177.50;5031024;28;19946;-68
2023/02/22 09:31:39;;;;;;;;;;;;;;;8.34;100.00;101172.97;5028497;28;19925;-68
2023/02/22 09:34:12;;;;;;;;;;;;;;;8.40;100.00;101163.81;5022088;28;19925;-68
2023/02/22 09:36:39;;;;;;;;;;;;;;;8.48;100.00;101161.44;5028548;28;19924;-68
2023/02/22 09:39:07;;;;;;;;;;;;;;;8.50;100.00;101170.81;5023027;28;19924;-67
2023/02/22 09:41:37;;;;;;;;;;;;;;;8.49;100.00;101182.25;5037489;28;19925;-68
2023/02/22 09:44:14;;;;;;;;;;;;;;;8.52;100.00;101175.94;5041905;28;19925;-67
2023/02/22 09:46:44;;;;;;;;;;;;;;;8.50;100.00;101177.84;5027301;28;20129;-68
2023/02/22 09:49:24;;;;;;;;;;;;;;;8.57;100.00;101173.78;5030566;28;19932;-68
2023/02/22 09:52:17;;;;;;;;;;;;;;;8.70;100.00;101169.22;5028835;28;19920;-68
2023/02/22 09:54:53;;;;;;;;;;;;;;;8.75;100.00;101157.53;5026057;28;20268;-68
2023/02/22 09:57:30;;;;;;;;;;;;;;;8.84;100.00;101157.63;5029781;28;20389;-68
2023/02/22 10:00:12;;;;;;;;;;;;;;;8.90;100.00;101157.09;5040012;28;19925;-67
2023/02/22 10:02:52;;;;;;;;;;;;;;;8.98;100.00;101164.31;5033163;28;20003;-68
2023/02/22 10:05:24;;;;;;;;;;;;;;;9.03;100.00;101163.91;5036349;28;19925;-68
2023/02/22 10:07:52;;;;;;;;;;;;;;;9.06;100.00;101161.06;5048487;28;19924;-68
2023/02/22 10:10:21;;;;;;;;;;;;;;;9.10;100.00;101162.47;5029818;28;19921;-68
2023/02/22 10:13:04;;;;;;;;;;;;;;;9.04;100.00;101165.59;5023740;28;20452;-68
2023/02/22 10:15:50;;;;;;;;;;;;;;;9.14;100.00;101163.03;5037693;28;19928;-68
2023/02/22 10:18:16;;;;;;;;;;;;;;;9.21;100.00;101154.56;5038954;28;20349;-67
2023/02/22 10:20:54;;;;;;;;;;;;;;;9.18;100.00;101156.59;5019458;28;19931;-68
2023/02/22 10:23:30;;;;;;;;;;;;;;;9.24;100.00;101149.03;5034522;28;19921;-68
2023/02/22 10:26:15;;;;;;;;;;;;;;;9.17;100.00;101155.72;5026702;28;20396;-68
2023/02/22 10:28:54;;;;;;;;;;;;;;;9.20;100.00;101168.56;5030928;28;19929;-68
2023/02/22 10:31:24;;;;;;;;;;;;;;;9.36;100.00;101154.19;5031218;28;19932;-68
2023/02/22 10:33:54;;;;;;;;;;;;;;;9.48;100.00;101151.34;5047224;28;20254;-68
2023/02/22 10:36:22;;;;;;;;;;;;;;;9.59;100.00;101150.44;5035853;28;20015;-68
2023/02/22 10:38:59;;;;;;;;;;;;;;;9.68;100.00;101140.94;5031863;28;19921;-68
2023/02/22 10:41:28;;;;;;;;;;;;;;;9.78;100.00;101136.59;5033598;28;20465;-68
2023/02/22 10:43:54;;;;;;;;;;;;;;;9.85;100.00;101129.84;5029423;28;19935;-67
2023/02/22 10:46:21;;;;;;;;;;;;;;;9.98;100.00;101124.38;5033516;28;19925;-68
2023/02/22 10:48:50;;;;;;;;;;;;;;;10.07;100.00;101117.47;5028372;28;19935;-68
2023/02/22 10:51:16;;;;;;;;;;;;;;;10.15;100.00;101124.66;5046865;28;19920;-68
2023/02/22 10:53:44;;;;;;;;;;;;;;;10.14;100.00;101123.00;5028973;28;19950;-68
2023/02/22 10:56:11;;;;;;;;;;;;;;;10.26;100.00;101122.75;5031461;28;19928;-68
2023/02/22 10:58:39;;;;;;;;;;;;;;;10.39;100.00;101106.78;5029299;28;19925;-68
2023/02/22 11:01:25;;;;;;;;;;;;;;;10.35;100.00;101113.28;5030944;28;19925;-69
2023/02/22 11:03:57;;;;;;;;;;;;;;;10.55;100.00;101108.03;5038462;28;20336;-68
2023/02/22 11:06:23;;;;;;;;;;;;;;;10.65;100.00;101114.06;5038802;28;19925;-68
2023/02/22 11:08:50;;;;;;;;;;;;;;;10.76;100.00;101105.22;5026932;28;19921;-68
2023/02/22 11:11:23;;;;;;;;;;;;;;;10.81;100.00;101103.81;5019755;28;19928;-68
2023/02/22 11:13:56;;;;;;;;;;;;;;;10.86;100.00;101103.41;5033512;28;19921;-68
2023/02/22 11:16:31;;;;;;;;;;;;;;;10.97;100.00;101103.25;5029165;28;19921;-68
2023/02/22 11:19:02;;;;;;;;;;;;;;;11.02;100.00;101105.44;5049946;28;19925;-68
2023/02/22 11:21:31;;;;;;;;;;;;;;;11.17;100.00;101101.41;5037308;28;20007;-68
2023/02/22 11:24:09;;;;;;;;;;;;;;;11.28;100.00;101105.63;5035139;28;19920;-68
2023/02/22 11:26:38;;;;;;;;;;;;;;;11.29;100.00;101107.31;5035118;28;19924;-68
2023/02/22 11:29:09;;;;;;;;;;;;;;;11.41;100.00;101111.41;5031400;28;19925;-68
2023/02/22 11:31:41;;;;;;;;;;;;;;;11.24;100.00;101104.28;5041543;28;19971;-68
2023/02/22 11:34:23;;;;;;;;;;;;;;;11.23;100.00;101099.97;5026030;28;21066;-68
2023/02/22 11:36:50;;;;;;;;;;;;;;;11.34;100.00;101099.81;5039724;28;20237;-68
2023/02/22 11:39:21;;;;;;;;;;;;;;;11.42;100.00;101096.47;5023266;28;19975;-68
2023/02/22 11:41:50;;;;;;;;;;;;;;;11.53;100.00;101085.78;5036180;28;20332;-68
2023/02/22 11:44:19;;;;;;;;;;;;;;;11.58;100.00;101094.00;5036110;28;19925;-68
2023/02/22 11:46:47;;;;;;;;;;;;;;;11.42;100.00;101088.56;5023027;28;19956;-68
2023/02/22 11:49:16;;;;;;;;;;;;;;;11.46;100.00;101088.13;5034315;28;19931;-68
2023/02/22 11:52:02;;;;;;;;;;;;;;;11.53;100.00;101079.69;5029735;28;19925;-68
2023/02/22 11:54:37;;;;;;;;;;;;;;;11.58;100.00;101086.13;5037380;28;19947;-68
2023/02/22 11:57:22;;;;;;;;;;;;;;;11.50;100.00;101093.94;5034361;28;20046;-68
2023/02/22 12:00:14;;;;;;;;;;;;;;;11.33;100.00;101078.94;5041803;28;20274;-68
2023/02/22 12:02:41;;;;;;;;;;;;;;;11.24;100.00;101080.63;5027544;28;20462;-69
2023/02/22 12:05:39;;;;;;;;;;;;;;;11.29;100.00;101078.41;5034903;28;20323;-68
2023/02/22 12:08:07;;;;;;;;;;;;;;;11.38;100.00;101068.84;5025155;28;19925;-68
2023/02/22 12:10:45;;;;;;;;;;;;;;;11.21;100.00;101070.41;5045643;28;20053;-68
2023/02/22 12:13:21;;;;;;;;;;;;;;;11.12;100.00;101073.94;5036114;28;19961;-68
2023/02/22 12:16:13;;;;;;;;;;;;;;;11.23;100.00;101061.44;5046332;28;19947;-68
2023/02/22 12:19:07;;;;;;;;;;;;;;;11.36;100.00;101063.72;5037392;28;19928;-67
2023/02/22 12:21:36;;;;;;;;;;;;;;;11.42;100.00;101062.31;5035972;28;19929;-68
2023/02/22 12:24:13;;;;;;;;;;;;;;;11.56;100.00;101066.25;5037451;28;19970;-68
2023/02/22 12:26:40;;;;;;;;;;;;;;;11.65;100.00;101054.88;5037868;28;19921;-70
2023/02/22 12:29:07;;;;;;;;;;;;;;;11.77;100.00;101056.31;5044933;28;19964;-69
2023/02/22 12:31:48;;;;;;;;;;;;;;;11.85;100.00;101051.13;5027322;28;19936;-68
2023/02/22 12:34:18;;;;;;;;;;;;;;;11.95;100.00;101045.81;5033810;28;19921;-67
2023/02/22 12:36:47;;;;;;;;;;;;;;;12.05;100.00;101045.75;5040204;28;19947;-67
2023/02/22 12:39:29;;;;;;;;;;;;;;;12.11;100.00;101042.53;5045800;28;19925;-67
2023/02/22 12:42:03;;;;;;;;;;;;;;;12.14;100.00;101039.59;5032877;28;19963;-68
2023/02/22 12:44:33;;;;;;;;;;;;;;;12.08;100.00;101032.31;5041284;28;19921;-68
2023/02/22 12:47:01;;;;;;;;;;;;;;;12.16;100.00;101024.50;5034036;28;19924;-69